HEAL

Details ICAO HEAL (DBB)
Name AL ALAMAIN INTL
Region Egypt
Timezone Africa/Cairo (UTC+2.0)
Plans Departing 10
Arriving 9
Stats Elevation 143 ft / 44 m (AMSL)
Location 30.924444° 28.461417°
Runways 1
Magnetic Variation 4.299° E
Sunrise 2017-12-18 04:59:47 UTC / 2017-12-18 06:59:47 Local
Sunset 2017-12-18 15:08:23 UTC / 2017-12-18 17:08:23 Local
Advertisement - Login to hide

Runways

ID Width Length Bearing (true) Bearing (mag) Surface Threshold Offset Overrun Length
13 148 ft / 45 m 11,484 ft / 3,500 m 130.91° 126.61° Asphalt 0 ft / 0 m 270 ft / 82 m
31 148 ft / 45 m 11,484 ft / 3,500 m 310.92° 306.62° Asphalt 0 ft / 0 m 270 ft / 82 m

Map

Weather


0- 5 10 15 20 25 30 35+ Temperature / ° C

Clouds and Precipitation
Forecast for 2017-12-18 12:00 UTC. Updated 2 hours ago

Ground ~20,000 ft ~40,000 ft Winds

METAR

Not found

TAF

TAF HEAL 180520Z 1806/1912 30008KT CAVOK BECMG 1810/1812 02010KT 9999 SCT020

Frequencies

Ground 121.90 MHz GND
Tower 123.40 MHz TWR
Tower 120.00 MHz TWR
Warning: Do not use this data for real-world aviation or navigation. No guarantee of current accuracy is given.